Time;durP1;ratioP1;P1;durP2;ratioP2;P2;SDS_P1;SDS_P2;PMS_P1;PMS_P2;Temp;Humidity;BMP_temperature;BMP_pressure;BME280_temperature;BME280_humidity;BME280_pressure;Samples;Min_cycle;Max_cycle;Signal;HPM_P1;HPM_P2
2023/07/04 00:03:57;;;;;;;5.07;1.40;;;;;;;17.77;100.00;-18505.38;4944422;28;20450;-75
2023/07/04 00:06:47;;;;;;;3.92;1.27;;;;;;;17.74;100.00;-18504.56;4959118;28;20039;-75
2023/07/04 00:09:12;;;;;;;3.75;1.10;;;;;;;17.70;100.00;-18503.63;4951977;28;20051;-75
2023/07/04 00:11:50;;;;;;;3.20;1.30;;;;;;;17.74;100.00;-18504.56;4960871;28;20080;-74
2023/07/04 00:14:15;;;;;;;3.42;1.50;;;;;;;17.66;100.00;-18502.38;4960702;28;20545;-75
2023/07/04 00:16:59;;;;;;;6.32;1.58;;;;;;;17.69;100.00;-18503.34;4947174;28;20067;-75
2023/07/04 00:19:24;;;;;;;3.97;1.75;;;;;;;17.47;100.00;-18497.47;4961888;28;20503;-74
2023/07/04 00:21:49;;;;;;;8.77;2.05;;;;;;;17.74;100.00;-18504.69;4960604;28;20058;-77
2023/07/04 00:24:18;;;;;;;7.70;2.00;;;;;;;17.84;100.00;-18507.16;4961882;28;20499;-76
2023/07/04 00:26:49;;;;;;;6.72;1.52;;;;;;;17.45;100.00;-18496.78;4969050;28;20500;-75
2023/07/04 00:29:15;;;;;;;5.05;1.55;;;;;;;17.41;100.00;-18495.84;5003642;28;20126;-75
2023/07/04 00:32:02;;;;;;;9.63;1.80;;;;;;;17.43;100.00;-18496.25;5001232;28;20116;-74
2023/07/04 00:34:45;;;;;;;4.20;1.50;;;;;;;17.22;100.00;-18490.78;5003964;28;20038;-75
2023/07/04 00:37:14;;;;;;;4.30;1.80;;;;;;;17.35;100.00;-18494.34;4999523;28;20049;-75
2023/07/04 00:39:45;;;;;;;6.38;2.05;;;;;;;17.28;100.00;-18492.28;5008704;28;20064;-74
2023/07/04 00:42:45;;;;;;;6.70;1.80;;;;;;;17.35;100.00;-18494.34;5029143;28;20414;-75
2023/07/04 00:45:21;;;;;;;7.15;2.20;;;;;;;17.53;100.00;-18498.97;5021025;28;20037;-75
2023/07/04 00:48:27;;;;;;;8.82;2.25;;;;;;;17.65;100.00;-18502.09;5023577;28;21150;-75
2023/07/04 00:51:04;;;;;;;7.82;2.10;;;;;;;17.45;100.00;-18496.78;5021241;28;20044;-76
2023/07/04 00:54:41;;;;;;;6.18;1.75;;;;;;;17.55;100.00;-18499.50;5009882;28;20049;-76
2023/07/04 00:57:25;;;;;;;7.60;2.20;;;;;;;17.54;100.00;-18499.25;4982153;28;20116;-76
2023/07/04 00:59:58;;;;;;;6.38;1.95;;;;;;;17.59;100.00;-18500.59;5006020;28;20119;-76
2023/07/04 01:02:35;;;;;;;5.32;2.08;;;;;;;17.56;100.00;-18499.78;5011099;28;20064;-75
2023/07/04 01:05:07;;;;;;;8.10;2.50;;;;;;;17.70;100.00;-18503.63;5007162;28;20113;-75
2023/07/04 01:08:05;;;;;;;5.00;1.77;;;;;;;17.67;100.00;-18502.78;5004658;28;20133;-76
2023/07/04 01:11:02;;;;;;;6.80;1.60;;;;;;;17.72;100.00;-18504.16;5008410;28;20066;-75
2023/07/04 01:13:56;;;;;;;6.90;2.10;;;;;;;17.77;100.00;-18505.53;5003272;28;20053;-74
2023/07/04 01:16:31;;;;;;;6.13;2.17;;;;;;;17.73;100.00;-18504.44;5020297;28;20049;-77
2023/07/04 01:18:58;;;;;;;6.43;2.00;;;;;;;17.93;100.00;-18509.63;5012121;28;20045;-75
2023/07/04 01:21:37;;;;;;;6.32;1.90;;;;;;;17.84;100.00;-18507.31;5007038;28;20087;-76
2023/07/04 01:24:03;;;;;;;4.68;2.00;;;;;;;18.04;100.00;-18512.63;5006306;28;20096;-74
2023/07/04 01:26:35;;;;;;;5.13;2.30;;;;;;;18.03;100.00;-18512.34;5007785;28;20054;-77
2023/07/04 01:29:17;;;;;;;5.57;2.25;;;;;;;17.92;100.00;-18509.34;5006388;28;20041;-76
2023/07/04 01:31:49;;;;;;;4.60;2.15;;;;;;;17.85;100.00;-18507.44;5025143;28;20053;-75
2023/07/04 01:34:20;;;;;;;5.07;2.55;;;;;;;17.99;100.00;-18511.25;5022404;28;20124;-75
2023/07/04 01:37:04;;;;;;;5.97;2.10;;;;;;;17.94;100.00;-18509.88;5025846;28;20059;-76
2023/07/04 01:39:32;;;;;;;7.00;2.10;;;;;;;17.93;100.00;-18509.75;5024795;28;20501;-75
2023/07/04 01:42:36;;;;;;;6.50;2.15;;;;;;;18.13;100.00;-18514.94;5026952;28;20061;-75
2023/07/04 01:45:24;;;;;;;7.85;2.20;;;;;;;18.12;100.00;-18514.81;4947764;28;20042;-76
2023/07/04 01:47:50;;;;;;;6.10;2.20;;;;;;;18.10;100.00;-18514.25;5001230;28;20037;-76
2023/07/04 01:50:31;;;;;;;7.95;2.35;;;;;;;18.15;100.00;-18515.63;5003680;28;20060;-75
2023/07/04 01:52:56;;;;;;;6.90;2.47;;;;;;;18.01;100.00;-18511.81;5007082;28;20056;-76
2023/07/04 01:55:24;;;;;;;6.13;2.00;;;;;;;17.88;100.00;-18508.25;5015171;28;20037;-76
2023/07/04 01:58:25;;;;;;;6.15;1.88;;;;;;;17.82;100.00;-18506.75;5005148;28;20065;-77
2023/07/04 02:01:18;;;;;;;6.35;2.42;;;;;;;17.97;100.00;-18510.72;4990245;28;20049;-76
2023/07/04 02:03:47;;;;;;;6.97;2.17;;;;;;;17.95;100.00;-18510.31;5004367;28;20034;-76
2023/07/04 02:06:21;;;;;;;8.68;2.35;;;;;;;17.84;100.00;-18507.16;5011241;28;20045;-75
2023/07/04 02:09:47;;;;;;;7.80;2.28;;;;;;;17.89;100.00;-18508.53;5003745;28;20096;-74
2023/07/04 02:12:18;;;;;;;5.63;2.35;;;;;;;17.96;100.00;-18510.56;4963311;28;20535;-76
2023/07/04 02:14:56;;;;;;;5.13;2.05;;;;;;;17.92;100.00;-18509.47;4962388;28;20047;-77
2023/07/04 02:17:34;;;;;;;7.55;2.88;;;;;;;18.01;100.00;-18511.94;4963660;28;20487;-76
2023/07/04 02:20:30;;;;;;;5.68;2.28;;;;;;;17.94;100.00;-18510.03;4962788;28;20054;-76
2023/07/04 02:23:01;;;;;;;9.95;3.00;;;;;;;17.78;100.00;-18505.66;4979503;28;20045;-76
2023/07/04 02:26:01;;;;;;;5.40;2.40;;;;;;;17.73;100.00;-18504.28;5016133;28;20053;-77
2023/07/04 02:28:36;;;;;;;9.15;2.92;;;;;;;17.90;100.00;-18508.81;5005801;28;20107;-75
2023/07/04 02:31:27;;;;;;;9.65;3.30;;;;;;;17.87;100.00;-18507.97;5001149;28;20046;-76
2023/07/04 02:34:14;;;;;;;9.68;3.30;;;;;;;17.89;100.00;-18508.66;5002707;28;20080;-76
2023/07/04 02:36:48;;;;;;;7.10;3.30;;;;;;;17.71;100.00;-18503.88;5025831;28;20073;-75
2023/07/04 02:39:14;;;;;;;7.18;3.25;;;;;;;17.75;100.00;-18504.97;5025130;28;20041;-76
2023/07/04 02:41:39;;;;;;;11.30;3.60;;;;;;;17.90;100.00;-18508.94;5027516;28;20042;-74
2023/07/04 02:44:17;;;;;;;9.48;3.47;;;;;;;17.85;100.00;-18507.44;5026100;28;20125;-76
2023/07/04 02:46:42;;;;;;;7.88;3.28;;;;;;;17.92;100.00;-18509.47;5009600;28;20155;-77
2023/07/04 02:49:08;;;;;;;6.78;3.15;;;;;;;17.86;100.00;-18507.84;5005984;28;20512;-76
2023/07/04 02:51:58;;;;;;;8.80;3.40;;;;;;;17.88;100.00;-18508.25;5024536;28;20460;-77
2023/07/04 02:54:32;;;;;;;6.47;2.65;;;;;;;17.77;100.00;-18505.53;5036184;28;20041;-77
2023/07/04 02:57:19;;;;;;;7.65;3.47;;;;;;;17.62;100.00;-18501.28;5025132;28;22154;-76
2023/07/04 03:03:09;;;;;;;9.55;3.38;;;;;;;17.94;100.00;-18509.88;5019872;28;20420;-75
2023/07/04 03:05:50;;;;;;;10.88;4.07;;;;;;;17.73;100.00;-18504.28;5006608;28;20505;-76
2023/07/04 03:08:27;;;;;;;10.85;4.07;;;;;;;17.78;100.00;-18505.81;5003227;28;20061;-75
2023/07/04 03:10:56;;;;;;;9.55;3.72;;;;;;;17.90;100.00;-18508.81;5009727;28;20034;-75
2023/07/04 03:13:21;;;;;;;9.05;3.80;;;;;;;17.96;100.00;-18510.44;5013511;28;20262;-76
2023/07/04 03:15:46;;;;;;;10.77;4.13;;;;;;;18.00;100.00;-18511.66;5005956;28;21028;-75
2023/07/04 03:18:22;;;;;;;9.30;4.00;;;;;;;17.95;100.00;-18510.16;5001038;28;20088;-76
2023/07/04 03:21:12;;;;;;;9.80;5.07;;;;;;;17.93;100.00;-18509.63;4992025;28;20054;-75
2023/07/04 03:24:21;;;;;;;15.93;4.60;;;;;;;17.90;100.00;-18508.94;5021808;28;20048;-77
2023/07/04 03:26:46;;;;;;;12.07;4.63;;;;;;;17.87;100.00;-18508.13;5007079;28;20134;-75
2023/07/04 03:29:18;;;;;;;11.18;4.80;;;;;;;17.87;100.00;-18507.97;5006984;28;20041;-76
2023/07/04 03:31:43;;;;;;;10.20;4.60;;;;;;;17.94;100.00;-18509.88;4969786;28;20838;-75
2023/07/04 03:34:18;;;;;;;12.75;5.38;;;;;;;17.95;100.00;-18510.16;5012955;28;20041;-75
2023/07/04 03:36:53;;;;;;;8.13;4.32;;;;;;;17.81;100.00;-18506.63;5014307;28;20037;-75
2023/07/04 03:39:24;;;;;;;12.02;4.50;;;;;;;17.86;100.00;-18507.72;5017619;28;20532;-75
2023/07/04 03:41:50;;;;;;;9.60;4.20;;;;;;;17.99;100.00;-18511.25;5030629;28;20045;-75
2023/07/04 03:44:15;;;;;;;13.25;4.43;;;;;;;17.90;100.00;-18508.81;5023766;28;20183;-75
2023/07/04 03:46:40;;;;;;;9.20;4.25;;;;;;;17.89;100.00;-18508.66;5031076;28;20222;-76
2023/07/04 03:49:06;;;;;;;8.93;5.05;;;;;;;17.95;100.00;-18510.16;5007485;28;20409;-75
2023/07/04 03:51:43;;;;;;;11.35;4.38;;;;;;;17.89;100.00;-18508.66;5003475;28;20037;-75
2023/07/04 03:54:11;;;;;;;9.60;4.22;;;;;;;17.79;100.00;-18505.94;4998567;28;20034;-75
2023/07/04 03:56:40;;;;;;;11.48;3.92;;;;;;;17.89;100.00;-18508.66;5012124;28;20048;-75
2023/07/04 03:59:06;;;;;;;11.48;4.15;;;;;;;17.91;100.00;-18509.06;5007930;28;20042;-75
2023/07/04 04:02:19;;;;;;;9.00;3.88;;;;;;;17.74;100.00;-18504.56;5008864;28;20751;-76
2023/07/04 04:04:50;;;;;;;11.43;4.88;;;;;;;17.60;100.00;-18500.88;4932386;28;20109;-76
2023/07/04 04:07:18;;;;;;;9.55;4.35;;;;;;;17.55;100.00;-18499.66;4960968;28;20137;-75
2023/07/04 04:09:43;;;;;;;9.40;3.58;;;;;;;17.47;100.00;-18497.34;4960876;28;20157;-74
2023/07/04 04:12:09;;;;;;;9.50;3.80;;;;;;;17.51;100.00;-18498.56;4962474;28;20042;-75
2023/07/04 04:14:44;;;;;;;9.70;4.03;;;;;;;17.56;100.00;-18499.78;4944506;28;20043;-76
2023/07/04 04:17:15;;;;;;;10.82;3.90;;;;;;;17.36;100.00;-18494.59;4947512;28;20043;-74
2023/07/04 04:20:32;;;;;;;9.60;3.90;;;;;;;17.35;100.00;-18494.19;4960639;28;20050;-75
2023/07/04 04:22:58;;;;;;;9.05;3.85;;;;;;;17.55;100.00;-18499.50;4911013;28;20124;-77
2023/07/04 04:25:24;;;;;;;9.00;3.60;;;;;;;17.51;100.00;-18498.44;4960600;28;20057;-75
2023/07/04 04:27:55;;;;;;;10.20;3.85;;;;;;;17.56;100.00;-18499.78;4960690;28;20042;-74
2023/07/04 04:31:35;;;;;;;;;;;;;;;;;;;;;
2023/07/04 04:33:32;;;;;;;10.85;3.40;;;;;;;17.49;100.00;-18497.88;4952566;28;20046;-76
2023/07/04 04:35:57;;;;;;;7.50;3.20;;;;;;;17.53;100.00;-18499.09;4965932;28;20133;-75
2023/07/04 04:38:23;;;;;;;7.60;3.72;;;;;;;17.58;100.00;-18500.34;4964775;28;20133;-75
2023/07/04 04:40:51;;;;;;;6.82;3.42;;;;;;;17.52;100.00;-18498.84;4970163;28;20037;-75
2023/07/04 04:43:28;;;;;;;12.05;3.83;;;;;;;17.64;100.00;-18501.97;5027417;28;20512;-75
2023/07/04 04:46:22;;;;;;;6.85;2.70;;;;;;;17.66;100.00;-18502.50;5010027;28;20049;-74
2023/07/04 04:48:47;;;;;;;11.40;2.80;;;;;;;17.60;100.00;-18500.88;4998422;28;20056;-75
2023/07/04 04:51:13;;;;;;;8.88;2.92;;;;;;;17.70;100.00;-18503.63;5026505;28;20037;-75
2023/07/04 04:53:41;;;;;;;7.68;2.97;;;;;;;17.76;100.00;-18505.13;5028651;28;20500;-75
2023/07/04 04:56:16;;;;;;;7.30;2.70;;;;;;;17.82;100.00;-18506.75;5031192;28;20457;-76
2023/07/04 04:59:12;;;;;;;11.23;3.10;;;;;;;17.86;100.00;-18507.84;5028263;28;20733;-75
2023/07/04 05:01:46;;;;;;;10.52;3.00;;;;;;;17.91;100.00;-18509.22;5033550;28;20042;-75
2023/07/04 05:04:12;;;;;;;9.68;2.97;;;;;;;18.05;100.00;-18512.91;5043304;28;20292;-76
2023/07/04 05:07:23;;;;;;;8.02;3.30;;;;;;;18.09;100.00;-18513.97;5027146;28;20037;-75
2023/07/04 05:10:17;;;;;;;7.82;2.97;;;;;;;18.06;100.00;-18513.16;4966639;28;20065;-75
2023/07/04 05:12:58;;;;;;;11.25;3.72;;;;;;;18.21;100.00;-18517.13;4942322;28;20121;-75
2023/07/04 05:15:27;;;;;;;10.40;3.85;;;;;;;18.11;100.00;-18514.41;5011670;28;20084;-75
2023/07/04 05:18:14;;;;;;;11.68;4.72;;;;;;;17.99;100.00;-18511.25;5012223;28;20049;-76
2023/07/04 05:20:48;;;;;;;13.43;3.70;;;;;;;18.07;100.00;-18513.31;5008877;28;20069;-75
2023/07/04 05:23:33;;;;;;;12.63;4.88;;;;;;;18.06;100.00;-18513.16;5011910;28;20076;-74
2023/07/04 05:26:17;;;;;;;10.48;4.32;;;;;;;18.18;100.00;-18516.44;5019922;28;20034;-74
2023/07/04 05:28:46;;;;;;;8.95;3.90;;;;;;;18.16;100.00;-18515.91;5009271;28;20417;-76
2023/07/04 05:31:28;;;;;;;14.77;4.00;;;;;;;18.24;100.00;-18517.94;5019067;28;20041;-75
2023/07/04 05:33:56;;;;;;;12.07;4.07;;;;;;;18.14;100.00;-18515.34;5026791;28;20088;-75
2023/07/04 05:36:53;;;;;;;10.23;3.90;;;;;;;18.35;100.00;-18520.94;5023234;28;20045;-75
2023/07/04 05:39:21;;;;;;;12.23;4.63;;;;;;;18.04;100.00;-18512.63;5005674;28;20050;-76
2023/07/04 05:41:46;;;;;;;13.73;5.07;;;;;;;18.22;100.00;-18517.53;5027099;28;20472;-76
2023/07/04 05:44:30;;;;;;;11.85;4.72;;;;;;;18.38;100.00;-18521.75;5026494;28;20060;-77
2023/07/04 05:47:02;;;;;;;10.75;5.13;;;;;;;18.64;100.00;-18528.56;5020410;28;20037;-76
2023/07/04 05:49:33;;;;;;;13.80;5.35;;;;;;;18.68;100.00;-18529.81;5025033;28;20065;-75
2023/07/04 05:51:59;;;;;;;17.08;5.55;;;;;;;18.54;100.00;-18525.84;5031486;28;20511;-76
2023/07/04 05:54:24;;;;;;;14.02;5.78;;;;;;;18.47;100.00;-18524.06;5034336;28;20049;-75
2023/07/04 05:56:59;;;;;;;12.88;5.50;;;;;;;18.64;100.00;-18528.56;5027973;28;20087;-76
2023/07/04 05:59:30;;;;;;;15.65;4.97;;;;;;;18.62;100.00;-18528.16;5026309;28;20042;-76
2023/07/04 06:02:06;;;;;;;12.82;5.15;;;;;;;18.80;100.00;-18532.94;5019578;28;20164;-77
2023/07/04 06:04:49;;;;;;;12.27;5.18;;;;;;;18.78;100.00;-18532.25;5043303;28;20041;-77
2023/07/04 06:07:41;;;;;;;14.27;5.50;;;;;;;19.06;100.00;-18539.75;5039751;28;20045;-75
2023/07/04 06:10:12;;;;;;;13.52;5.05;;;;;;;19.17;100.00;-18542.88;5005414;28;20583;-74
2023/07/04 06:12:40;;;;;;;17.13;5.50;;;;;;;19.24;100.00;-18544.53;5025024;28;20064;-76
2023/07/04 06:15:06;;;;;;;17.08;5.82;;;;;;;19.27;100.00;-18545.34;5016614;28;20053;-76
2023/07/04 06:17:41;;;;;;;17.10;5.25;;;;;;;19.34;100.00;-18547.38;5001387;28;20041;-76
2023/07/04 06:20:20;;;;;;;18.25;6.28;;;;;;;19.16;100.00;-18542.63;5011060;28;20045;-75
2023/07/04 06:23:04;;;;;;;15.15;5.68;;;;;;;19.23;100.00;-18544.25;5001323;28;20914;-78
2023/07/04 06:26:07;;;;;;;17.98;5.45;;;;;;;19.18;100.00;-18543.03;5022842;28;20041;-77
2023/07/04 06:28:33;;;;;;;13.63;5.25;;;;;;;19.21;100.00;-18543.84;5024007;28;20041;-76
2023/07/04 06:31:03;;;;;;;15.20;4.72;;;;;;;19.10;100.00;-18540.97;5027167;28;20037;-76
2023/07/04 06:33:29;;;;;;;15.82;5.25;;;;;;;19.13;100.00;-18541.81;5030820;28;20096;-75
2023/07/04 06:35:57;;;;;;;13.55;5.07;;;;;;;19.23;100.00;-18544.38;5022922;28;20463;-78
2023/07/04 06:38:23;;;;;;;15.57;4.93;;;;;;;19.38;100.00;-18548.34;5025998;28;20049;-76
2023/07/04 06:41:19;;;;;;;14.85;5.60;;;;;;;19.31;100.00;-18546.44;5028138;28;20052;-76
2023/07/04 06:44:06;;;;;;;14.45;4.70;;;;;;;19.42;100.00;-18549.28;5033142;28;20057;-77
2023/07/04 06:46:35;;;;;;;13.73;5.85;;;;;;;19.55;100.00;-18552.97;5031482;28;20087;-75
2023/07/04 06:50:21;;;;;;;13.80;5.50;;;;;;;19.64;100.00;-18555.16;5021528;28;20538;-76
2023/07/04 06:52:29;;;;;;;18.08;5.82;;;;;;;19.35;100.00;-18547.53;4998099;28;20449;-76
2023/07/04 06:58:26;;;;;;;19.67;5.43;;;;;;;19.54;100.00;-18552.69;4984262;28;20104;-77
2023/07/04 07:01:07;;;;;;;17.73;5.20;;;;;;;19.63;100.00;-18554.88;4986383;28;20053;-75
2023/07/04 07:03:59;;;;;;;12.48;4.72;;;;;;;19.50;100.00;-18551.47;4974635;28;20535;-75
2023/07/04 07:06:42;;;;;;;15.10;4.95;;;;;;;19.56;100.00;-18553.25;4984792;28;20053;-74
2023/07/04 07:09:17;;;;;;;16.23;5.70;;;;;;;19.59;100.00;-18554.06;4978311;28;20047;-76
2023/07/04 07:11:54;;;;;;;13.65;5.07;;;;;;;19.56;100.00;-18553.25;4971072;28;20137;-75
2023/07/04 07:14:32;;;;;;;12.88;5.10;;;;;;;19.80;100.00;-18559.66;4975195;28;20042;-75
2023/07/04 07:17:23;;;;;;;20.13;4.60;;;;;;;19.87;100.00;-18561.28;5023645;28;20095;-76
2023/07/04 07:19:48;;;;;;;17.90;4.63;;;;;;;19.87;100.00;-18561.41;5014808;28;20056;-76
2023/07/04 07:22:20;;;;;;;15.60;4.32;;;;;;;20.05;100.00;-18566.31;5016928;28;20497;-76
2023/07/04 07:25:20;;;;;;;14.20;5.28;;;;;;;20.25;100.00;-18571.50;5005457;28;20148;-75
2023/07/04 07:28:22;;;;;;;18.58;4.63;;;;;;;20.28;100.00;-18572.31;5024903;28;20179;-76
2023/07/04 07:34:09;;;;;;;13.55;5.20;;;;;;;20.08;100.00;-18566.88;5021960;28;20065;-75
2023/07/04 07:36:40;;;;;;;17.98;5.20;;;;;;;20.05;100.00;-18566.19;5029432;28;20136;-77
2023/07/04 07:40:00;;;;;;;12.90;4.88;;;;;;;20.06;100.00;-18566.59;5023029;28;20646;-76
2023/07/04 07:43:12;;;;;;;12.70;4.80;;;;;;;20.23;100.00;-18570.94;4966022;28;20470;-76
2023/07/04 07:46:30;;;;;;;15.88;4.93;;;;;;;20.08;100.00;-18566.88;4984064;28;20138;-77
2023/07/04 07:48:56;;;;;;;14.88;5.82;;;;;;;20.46;100.00;-18577.22;4989631;28;20540;-77
2023/07/04 07:51:22;;;;;;;13.80;4.68;;;;;;;20.56;100.00;-18579.66;5022437;28;20049;-76
2023/07/04 07:53:55;;;;;;;17.25;6.07;;;;;;;20.58;100.00;-18580.22;5028973;28;20033;-76
2023/07/04 07:56:23;;;;;;;16.58;4.55;;;;;;;20.51;100.00;-18578.56;5020590;28;20543;-78
2023/07/04 07:58:52;;;;;;;20.13;5.43;;;;;;;20.54;100.00;-18579.25;5006765;28;20064;-75
2023/07/04 08:01:48;;;;;;;15.48;4.97;;;;;;;20.62;100.00;-18581.28;5003529;28;20289;-75
2023/07/04 08:04:13;;;;;;;12.23;5.15;;;;;;;20.77;100.00;-18585.38;5011488;28;20052;-75
2023/07/04 08:06:46;;;;;;;13.25;4.57;;;;;;;20.76;100.00;-18584.97;5004946;28;20072;-74
2023/07/04 08:09:23;;;;;;;13.43;4.72;;;;;;;20.82;100.00;-18586.59;5023525;28;20049;-75
2023/07/04 08:11:52;;;;;;;14.50;5.22;;;;;;;20.99;100.00;-18591.09;5007826;28;20038;-75
2023/07/04 08:14:20;;;;;;;14.63;4.00;;;;;;;20.93;96.88;-18589.72;5013055;28;20077;-77
2023/07/04 08:17:21;;;;;;;11.57;4.68;;;;;;;20.98;99.63;-18590.94;5031525;28;20098;-76
2023/07/04 08:19:59;;;;;;;14.25;4.15;;;;;;;21.02;97.55;-18591.91;4995050;28;20046;-76
2023/07/04 08:22:24;;;;;;;12.77;3.78;;;;;;;21.03;91.21;-18592.19;5000853;28;20049;-76
2023/07/04 08:24:53;;;;;;;11.40;3.30;;;;;;;21.01;90.38;-18591.78;4998803;28;20090;-76
2023/07/04 08:27:43;;;;;;;15.88;4.15;;;;;;;21.38;95.33;-18601.56;4994759;28;20053;-76
2023/07/04 08:30:14;;;;;;;11.43;4.10;;;;;;;21.48;95.08;-18604.16;5005156;28;20034;-76
2023/07/04 08:32:39;;;;;;;11.20;3.90;;;;;;;21.58;93.79;-18606.88;5032767;28;20061;-76
2023/07/04 08:35:05;;;;;;;14.18;3.88;;;;;;;21.50;89.71;-18604.81;5006251;28;20049;-76
2023/07/04 08:37:40;;;;;;;14.68;4.15;;;;;;;21.51;88.02;-18604.97;5007360;28;20056;-76
2023/07/04 08:40:05;;;;;;;12.15;3.47;;;;;;;21.54;86.59;-18605.91;5019230;28;20045;-76
2023/07/04 08:42:44;;;;;;;12.63;3.10;;;;;;;21.44;85.32;-18603.06;5023957;28;20053;-76
2023/07/04 08:45:39;;;;;;;6.87;2.87;;;;;;;21.32;80.68;-18600.06;5025130;28;20048;-76
2023/07/04 08:48:17;;;;;;;9.43;3.17;;;;;;;21.26;77.16;-18598.44;5003049;28;20287;-76
2023/07/04 08:50:48;;;;;;;10.93;3.55;;;;;;;21.35;79.65;-18600.88;5021866;28;20100;-76
2023/07/04 08:56:36;;;;;;;7.95;3.00;;;;;;;21.18;73.21;-18596.25;5021949;28;20136;-76
2023/07/04 09:06:07;;;;;;;7.85;3.03;;;;;;;21.24;66.63;-18597.88;5014865;28;20499;-76
2023/07/04 09:09:19;;;;;;;8.73;2.67;;;;;;;21.18;65.60;-18596.25;5024489;28;20076;-76
2023/07/04 09:11:50;;;;;;;8.38;2.28;;;;;;;20.94;63.31;-18590.00;5002094;28;20135;-76
2023/07/04 09:15:02;;;;;;;8.30;2.70;;;;;;;21.11;66.92;-18594.34;5002307;28;20409;-79
2023/07/04 09:17:42;;;;;;;11.10;3.38;;;;;;;21.10;68.62;-18594.09;5010706;28;20084;-76
2023/07/04 09:20:13;;;;;;;10.70;2.72;;;;;;;21.28;69.60;-18598.97;5017524;28;20042;-76
2023/07/04 09:22:39;;;;;;;7.22;1.92;;;;;;;21.03;64.98;-18592.19;5009124;28;20073;-76
2023/07/04 09:25:05;;;;;;;9.48;2.88;;;;;;;21.14;62.92;-18595.16;5027658;28;20065;-76
2023/07/04 09:27:33;;;;;;;9.10;2.33;;;;;;;21.22;63.23;-18597.22;5027712;28;20056;-76
2023/07/04 09:30:14;;;;;;;8.13;2.38;;;;;;;21.29;61.97;-18599.25;5026382;28;20393;-76
2023/07/04 09:32:45;;;;;;;8.45;2.15;;;;;;;21.22;62.37;-18597.34;5026840;28;20250;-76
2023/07/04 09:35:17;;;;;;;7.57;2.25;;;;;;;21.53;62.35;-18605.50;5026883;28;20045;-76
2023/07/04 09:38:23;;;;;;;6.93;2.65;;;;;;;21.57;64.54;-18606.72;5025543;28;20501;-76
2023/07/04 09:41:26;;;;;;;7.57;2.50;;;;;;;21.53;65.83;-18605.63;5014874;28;20052;-76
2023/07/04 09:44:36;;;;;;;9.55;2.60;;;;;;;21.58;63.28;-18607.00;5024757;28;20045;-76
2023/07/04 09:47:20;;;;;;;12.15;2.97;;;;;;;21.72;64.44;-18610.66;5018400;28;20046;-76
2023/07/04 09:50:22;;;;;;;6.90;2.17;;;;;;;21.81;63.36;-18613.13;5026708;28;20136;-76
2023/07/04 09:53:34;;;;;;;16.70;2.90;;;;;;;21.67;62.27;-18609.31;5027455;28;20147;-76
2023/07/04 09:56:01;;;;;;;10.55;2.50;;;;;;;21.69;64.50;-18609.84;5004191;28;20072;-76
2023/07/04 09:58:32;;;;;;;10.15;3.05;;;;;;;21.76;63.37;-18611.75;5025648;28;20720;-76
2023/07/04 10:01:24;;;;;;;8.75;2.70;;;;;;;22.00;65.51;-18618.00;5013077;28;20059;-76
2023/07/04 10:03:50;;;;;;;17.17;3.70;;;;;;;21.95;61.36;-18616.66;5026013;28;20043;-76
2023/07/04 10:07:09;;;;;;;9.98;2.88;;;;;;;22.06;62.51;-18619.63;5025806;28;20041;-76
2023/07/04 10:10:11;;;;;;;8.90;2.95;;;;;;;22.10;62.32;-18620.72;4982327;28;20327;-76
2023/07/04 10:13:04;;;;;;;8.25;2.85;;;;;;;21.86;59.83;-18614.34;4982187;28;20117;-76
2023/07/04 10:15:42;;;;;;;9.13;3.40;;;;;;;22.15;62.21;-18621.94;4980638;28;20512;-77
2023/07/04 10:18:32;;;;;;;11.60;2.78;;;;;;;22.01;57.34;-18618.28;5008824;28;20060;-76
2023/07/04 10:24:07;;;;;;;9.75;3.47;;;;;;;21.92;53.72;-18615.81;5002581;28;20033;-76
2023/07/04 10:26:35;;;;;;;8.05;3.45;;;;;;;22.09;56.34;-18620.44;5036666;28;20057;-76
2023/07/04 10:29:08;;;;;;;11.85;3.25;;;;;;;22.14;54.06;-18621.81;5025919;28;20041;-76
2023/07/04 10:31:35;;;;;;;8.85;3.15;;;;;;;22.42;54.93;-18629.16;5026203;28;20041;-76
2023/07/04 10:34:22;;;;;;;7.00;3.13;;;;;;;22.50;54.76;-18631.44;5026874;28;20045;-77
2023/07/04 10:40:49;;;;;;;9.75;3.00;;;;;;;23.01;54.51;-18644.75;4933429;29;20043;-75
2023/07/04 10:43:57;;;;;;;10.40;2.38;;;;;;;23.24;51.79;-18650.88;4863165;29;20080;-76
2023/07/04 10:47:08;;;;;;;8.20;2.42;;;;;;;23.15;49.10;-18648.69;4877888;29;20061;-77
2023/07/04 10:49:57;;;;;;;8.05;2.45;;;;;;;23.01;50.09;-18644.91;4826033;29;20124;-79
2023/07/04 10:52:34;;;;;;;9.10;2.83;;;;;;;23.24;49.93;-18650.88;4937897;28;20050;-76
2023/07/04 10:55:30;;;;;;;7.30;2.17;;;;;;;23.28;47.44;-18651.94;4923567;28;20500;-77
2023/07/04 10:58:20;;;;;;;5.43;2.58;;;;;;;23.13;47.17;-18648.16;4961074;28;20052;-77
2023/07/04 11:01:37;;;;;;;9.18;2.63;;;;;;;23.19;48.40;-18649.78;4960650;28;20046;-76
2023/07/04 11:04:37;;;;;;;8.00;2.55;;;;;;;23.64;48.70;-18661.56;4903917;29;20124;-76
2023/07/04 11:07:28;;;;;;;7.75;2.38;;;;;;;23.46;44.35;-18656.69;4899745;29;20043;-77
2023/07/04 11:10:09;;;;;;;7.70;2.00;;;;;;;23.75;46.79;-18664.56;4871379;29;20036;-76
2023/07/04 11:13:31;;;;;;;8.15;2.40;;;;;;;23.87;44.11;-18667.81;4922076;28;20039;-75
2023/07/04 11:19:27;;;;;;;8.45;2.50;;;;;;;23.47;44.95;-18657.09;4923633;28;20094;-74
2023/07/04 11:22:07;;;;;;;6.40;2.85;;;;;;;23.61;44.49;-18660.91;4923456;29;20043;-76
2023/07/04 11:25:01;;;;;;;6.28;2.38;;;;;;;23.76;44.12;-18664.69;4922782;29;20531;-75
2023/07/04 11:27:35;;;;;;;10.32;2.70;;;;;;;23.81;44.15;-18666.06;4908224;29;20575;-77
2023/07/04 11:30:05;;;;;;;6.03;2.13;;;;;;;24.08;45.82;-18673.38;4904769;29;20040;-76
2023/07/04 11:35:53;;;;;;;9.68;2.47;;;;;;;23.95;43.55;-18669.72;4902836;29;20047;-75
2023/07/04 11:38:59;;;;;;;7.10;2.45;;;;;;;23.90;42.45;-18668.38;4904350;29;20526;-77
2023/07/04 11:41:48;;;;;;;9.43;2.40;;;;;;;23.78;41.10;-18665.38;4925206;28;20057;-75
2023/07/04 11:45:00;;;;;;;7.63;1.77;;;;;;;23.76;40.70;-18664.69;4972033;28;20583;-76
2023/07/04 11:47:37;;;;;;;8.15;2.00;;;;;;;23.65;40.65;-18662.00;4975232;28;20042;-76
2023/07/04 11:54:01;;;;;;;8.13;2.55;;;;;;;24.14;41.42;-18674.72;4979886;28;20030;-76
2023/07/04 11:59:47;;;;;;;9.27;1.95;;;;;;;24.26;40.57;-18677.97;5001386;28;20590;-77
2023/07/04 12:02:30;;;;;;;6.05;1.38;;;;;;;24.36;40.31;-18680.69;4999224;28;20622;-76
2023/07/04 12:05:00;;;;;;;5.35;1.50;;;;;;;24.32;40.30;-18679.59;5007665;28;20118;-76
2023/07/04 12:08:18;;;;;;;6.95;1.80;;;;;;;24.37;40.76;-18680.97;5022008;28;20041;-75
2023/07/04 12:11:06;;;;;;;7.38;1.50;;;;;;;24.36;40.66;-18680.69;5026409;28;20029;-77
2023/07/04 12:13:47;;;;;;;4.20;1.40;;;;;;;24.32;41.39;-18679.75;5023133;28;20049;-75
2023/07/04 12:17:15;;;;;;;5.88;1.63;;;;;;;24.59;41.45;-18686.66;5033335;28;20759;-76
2023/07/04 12:19:42;;;;;;;4.68;1.42;;;;;;;24.41;40.50;-18682.03;4951031;28;20047;-75
2023/07/04 12:22:28;;;;;;;9.43;1.70;;;;;;;24.50;41.16;-18684.50;4945731;28;20050;-77
2023/07/04 12:25:29;;;;;;;8.50;1.90;;;;;;;24.80;40.66;-18692.34;4957655;28;20084;-76
2023/07/04 12:27:58;;;;;;;6.75;2.22;;;;;;;24.73;41.37;-18690.44;4967070;28;20046;-76
2023/07/04 12:30:30;;;;;;;7.35;2.33;;;;;;;24.53;40.50;-18685.16;4997865;28;20095;-77
2023/07/04 12:32:58;;;;;;;5.32;2.00;;;;;;;24.51;41.12;-18684.63;5007439;28;20615;-75
2023/07/04 12:35:33;;;;;;;5.45;1.85;;;;;;;24.29;40.92;-18678.94;5005592;28;20125;-75
2023/07/04 12:38:02;;;;;;;5.70;1.65;;;;;;;24.20;40.69;-18676.50;5010787;28;20138;-75
2023/07/04 12:44:16;;;;;;;8.02;1.98;;;;;;;23.99;41.68;-18670.81;5010285;28;20069;-75
2023/07/04 12:47:22;;;;;;;3.78;1.83;;;;;;;24.01;42.01;-18671.47;5022248;28;20544;-76
2023/07/04 12:49:52;;;;;;;6.05;2.10;;;;;;;23.92;42.73;-18669.03;4959380;28;20050;-76
2023/07/04 12:52:19;;;;;;;9.07;2.80;;;;;;;23.69;43.49;-18662.81;4946890;28;20125;-76
2023/07/04 12:58:07;;;;;;;8.18;2.60;;;;;;;23.96;43.44;-18670.13;4934131;28;20065;-77
2023/07/04 13:00:36;;;;;;;4.40;2.20;;;;;;;24.32;42.73;-18679.59;4970107;28;20072;-76
2023/07/04 13:03:10;;;;;;;;;;;;;;;24.44;41.09;-18682.88;5030302;28;20041;-76
2023/07/04 13:05:42;;;;;;;6.35;2.63;;;;;;;24.32;41.26;-18679.59;5007848;28;19932;-77
2023/07/04 13:08:14;;;;;;;8.93;3.22;;;;;;;24.59;42.42;-18686.66;5010270;28;20048;-76